createdAt,value
2022-12-08T00:00:26.954Z,11.8
2022-12-08T00:06:02.456Z,11.8
2022-12-08T00:11:37.397Z,11.9
2022-12-08T00:17:13.831Z,11.9
2022-12-08T00:22:49.269Z,11.9
2022-12-08T00:28:31.886Z,12
2022-12-08T00:34:07.081Z,11.9
2022-12-08T00:39:45.621Z,11.9
2022-12-08T00:46:50.602Z,11.8
2022-12-08T00:52:24.372Z,11.8
2022-12-08T00:58:20.600Z,11.8
2022-12-08T01:04:07.886Z,11.8
2022-12-08T01:09:44.126Z,11.8
2022-12-08T01:15:19.299Z,11.9
2022-12-08T01:20:54.178Z,11.9
2022-12-08T01:26:30.575Z,11.9
2022-12-08T01:32:26.496Z,11.9
2022-12-08T01:38:02.777Z,11.8
2022-12-08T01:43:37.953Z,11.8
2022-12-08T01:49:34.574Z,11.7
2022-12-08T01:55:09.390Z,11.7
2022-12-08T02:00:45.801Z,11.7
2022-12-08T02:06:20.798Z,11.7
2022-12-08T02:11:59.867Z,11.7
2022-12-08T02:17:56.571Z,11.7
2022-12-08T02:23:33.957Z,11.7
2022-12-08T02:29:09.265Z,11.7
2022-12-08T02:35:02.035Z,11.7
2022-12-08T02:40:38.225Z,11.7
2022-12-08T02:47:21.557Z,11.7
2022-12-08T02:52:54.647Z,11.6
2022-12-08T02:58:56.560Z,11.7
2022-12-08T03:04:32.960Z,11.7
2022-12-08T03:10:13.021Z,11.7
2022-12-08T03:15:55.916Z,11.6
2022-12-08T03:21:55.880Z,11.6
2022-12-08T03:27:57.573Z,11.5
2022-12-08T03:33:32.469Z,11.5
2022-12-08T03:39:12.579Z,11.6
2022-12-08T03:44:47.858Z,11.6
2022-12-08T03:50:23.218Z,11.6
2022-12-08T03:55:58.867Z,11.6
2022-12-08T04:01:34.887Z,11.6
2022-12-08T04:07:10.848Z,11.6
2022-12-08T04:12:47.078Z,11.7
2022-12-08T04:18:22.359Z,11.6
2022-12-08T04:24:00.966Z,11.6
2022-12-08T04:29:37.190Z,11.6
2022-12-08T04:35:12.846Z,11.6
2022-12-08T04:40:55.418Z,11.6
2022-12-08T04:46:52.476Z,11.6
2022-12-08T04:52:27.285Z,11.6
2022-12-08T04:58:02.307Z,11.5
2022-12-08T05:03:54.083Z,11.4
2022-12-08T05:09:29.182Z,11.4
2022-12-08T05:15:04.218Z,11.5
2022-12-08T05:20:39.320Z,11.5
2022-12-08T05:26:14.473Z,11.4
2022-12-08T05:31:50.984Z,11.5
2022-12-08T05:37:27.838Z,11.5
2022-12-08T05:43:03.087Z,11.5
2022-12-08T05:48:59.965Z,11.5
2022-12-08T05:54:34.066Z,11.4
2022-12-08T06:00:09.424Z,11.4
2022-12-08T06:05:55.113Z,11.3
2022-12-08T06:11:30.359Z,11.2
2022-12-08T06:17:14.139Z,11
2022-12-08T06:22:51.984Z,11
2022-12-08T06:28:27.205Z,10.9
2022-12-08T06:34:08.908Z,10.9
2022-12-08T06:39:44.131Z,10.9
2022-12-08T06:45:19.493Z,11
2022-12-08T06:50:55.320Z,11
2022-12-08T06:56:43.676Z,11
2022-12-08T07:02:27.733Z,11.1
2022-12-08T07:08:15.567Z,11.1
2022-12-08T07:13:51.905Z,11.1
2022-12-08T07:19:27.583Z,11
2022-12-08T07:25:02.762Z,11
2022-12-08T07:30:38.943Z,10.9
2022-12-08T07:36:16.805Z,10.9
2022-12-08T07:41:52.137Z,10.9
2022-12-08T07:47:48.855Z,10.9
2022-12-08T07:53:21.844Z,10.9
2022-12-08T07:58:58.016Z,10.9
2022-12-08T08:04:34.418Z,10.9
2022-12-08T08:10:10.933Z,9.9
2022-12-08T08:15:49.964Z,9.6
2022-12-08T08:21:44.837Z,9.4
2022-12-08T08:27:21.849Z,9.2
2022-12-08T08:33:00.433Z,9.2
2022-12-08T08:38:35.752Z,9.4
2022-12-08T08:44:11.294Z,9.4
2022-12-08T08:49:47.243Z,9.6
2022-12-08T08:55:22.549Z,9.6
2022-12-08T09:00:57.829Z,9.9
2022-12-08T09:06:34.693Z,9.9
2022-12-08T09:12:10.475Z,10
2022-12-08T09:17:46.016Z,10.3
2022-12-08T09:23:21.568Z,10.7
2022-12-08T09:28:56.867Z,11.1
2022-12-08T09:34:33.056Z,11.2
2022-12-08T09:40:08.173Z,10.9
2022-12-08T09:45:46.635Z,10.7
2022-12-08T09:51:22.488Z,10.8
2022-12-08T09:56:57.320Z,10.8
2022-12-08T10:02:32.454Z,10.7
2022-12-08T10:08:12.490Z,10.7
2022-12-08T10:13:49.991Z,10.9
2022-12-08T10:19:46.938Z,11.2
2022-12-08T10:25:22.672Z,11.6
2022-12-08T10:30:59.183Z,11.8
2022-12-08T10:36:35.768Z,11.7
2022-12-08T10:42:15.295Z,11.5
2022-12-08T10:48:12.199Z,11.4
2022-12-08T10:53:44.930Z,11.5
2022-12-08T10:59:56.293Z,11.7
2022-12-08T11:05:38.738Z,11.6
2022-12-08T11:11:45.511Z,11.6
2022-12-08T11:17:27.526Z,11.5
2022-12-08T11:23:06.148Z,11.4
2022-12-08T11:28:41.568Z,11.5
2022-12-08T11:34:16.668Z,11.3
2022-12-08T11:39:59.694Z,11.2
2022-12-08T11:45:36.535Z,11.7
2022-12-08T11:51:12.542Z,11.7
2022-12-08T11:57:00.271Z,11.6
2022-12-08T12:02:37.904Z,11.7
2022-12-08T12:08:23.732Z,11.8
2022-12-08T12:13:59.531Z,11.9
2022-12-08T12:19:35.205Z,12
2022-12-08T12:25:31.595Z,12.1
2022-12-08T12:31:25.148Z,12.3
2022-12-08T12:37:17.952Z,12.2
2022-12-08T12:43:00.643Z,12.3
2022-12-08T12:48:57.583Z,12.3
2022-12-08T12:54:30.746Z,12.4
2022-12-08T13:00:07.243Z,12.5
2022-12-08T13:05:46.317Z,12.5
2022-12-08T13:11:21.958Z,12.6
2022-12-08T13:16:57.983Z,12.6
2022-12-08T13:22:34.551Z,12.7
2022-12-08T13:28:17.592Z,12.7
2022-12-08T13:33:53.018Z,12.7
2022-12-08T13:39:28.688Z,12.7
2022-12-08T13:45:33.891Z,12.7
2022-12-08T14:02:43.714Z,12.8
2022-12-08T14:08:57.337Z,12.8
2022-12-08T14:15:04.303Z,12.7
2022-12-08T14:20:58.283Z,12.7
2022-12-08T14:26:57.228Z,12.7
2022-12-08T14:32:33.504Z,12.6
2022-12-08T14:38:08.974Z,12.5
2022-12-08T14:43:45.121Z,12.4
2022-12-08T14:49:20.193Z,12.3
2022-12-08T14:54:55.372Z,12.4
2022-12-08T15:00:37.997Z,12.4
2022-12-08T15:06:13.712Z,12.3
2022-12-08T15:12:01.262Z,12.3
2022-12-08T15:17:39.776Z,12.2
2022-12-08T15:23:15.237Z,12.2
2022-12-08T15:28:56.103Z,12.2
2022-12-08T15:34:31.378Z,11.7
2022-12-08T15:40:06.731Z,11.2
2022-12-08T15:45:55.008Z,10.8
2022-12-08T15:51:44.977Z,10.8
2022-12-08T16:13:48.532Z,10.4
2022-12-08T16:22:17.501Z,10.3
2022-12-08T16:29:20.750Z,10.3
2022-12-08T16:34:56.015Z,10.3
2022-12-08T16:40:40.282Z,10
2022-12-08T16:46:46.435Z,10.1
2022-12-08T16:52:19.514Z,10.1
2022-12-08T16:58:15.616Z,10.5
2022-12-08T17:04:07.389Z,11
2022-12-08T17:10:09.086Z,11.3
2022-12-08T17:15:44.402Z,11.4
2022-12-08T17:21:20.397Z,11.4
2022-12-08T17:27:03.652Z,11.5
2022-12-08T17:33:05.148Z,11.5
2022-12-08T17:38:40.376Z,11.5
2022-12-08T17:44:15.562Z,11.5
2022-12-08T17:49:51.659Z,11.5
2022-12-08T17:55:31.931Z,11.5
2022-12-08T18:01:07.089Z,11.6
2022-12-08T18:06:43.398Z,11.6
2022-12-08T18:12:23.345Z,11.5
2022-12-08T18:17:59.665Z,11.5
2022-12-08T18:23:34.601Z,11.5
2022-12-08T18:29:10.210Z,11.5
2022-12-08T18:34:45.846Z,11.5
2022-12-08T18:40:20.809Z,11.5
2022-12-08T18:45:56.013Z,11.5
2022-12-08T18:51:32.254Z,11.5
2022-12-08T18:57:07.472Z,11.5
2022-12-08T19:02:42.634Z,11.5
2022-12-08T19:08:18.972Z,11.5
2022-12-08T19:14:05.988Z,11.5
2022-12-08T19:19:40.917Z,11.5
2022-12-08T19:25:16.004Z,11.5
2022-12-08T19:30:50.921Z,11.5
2022-12-08T19:36:26.760Z,11.5
2022-12-08T19:42:03.062Z,11.5
2022-12-08T19:47:39.785Z,11.5
2022-12-08T19:53:20.623Z,11.5
2022-12-08T19:58:56.269Z,11.5
2022-12-08T20:04:31.301Z,11.4
2022-12-08T20:10:07.875Z,11.3
2022-12-08T20:15:53.016Z,11.3
2022-12-08T20:21:34.079Z,11.2
2022-12-08T20:27:21.321Z,11.2
2022-12-08T20:32:56.414Z,11.2
2022-12-08T20:38:44.221Z,11.2
2022-12-08T20:44:20.608Z,11.1
2022-12-08T20:50:05.761Z,10.4
2022-12-08T20:55:46.014Z,10.6
2022-12-08T21:01:23.441Z,10.9
2022-12-08T21:07:01.297Z,11
2022-12-08T21:13:26.140Z,11
2022-12-08T21:19:02.070Z,10.9
2022-12-08T21:24:39.193Z,10.9
2022-12-08T21:30:20.845Z,10.8
2022-12-08T21:35:59.222Z,10.8
2022-12-08T21:41:57.610Z,10.8
2022-12-08T21:47:44.817Z,10.8
2022-12-08T21:53:26.041Z,10.8
2022-12-08T21:59:02.445Z,10.7
2022-12-08T22:04:47.405Z,10.7
2022-12-08T22:10:26.395Z,10.7
2022-12-08T22:16:02.589Z,10.7
2022-12-08T22:21:40.311Z,10.7
2022-12-08T22:27:16.923Z,10.6
2022-12-08T22:32:57.205Z,10.6
2022-12-08T22:38:33.156Z,10.7
2022-12-08T22:44:08.837Z,10.7
2022-12-08T22:50:06.097Z,10.7
2022-12-08T22:55:46.923Z,10.7
2022-12-08T23:01:23.581Z,10.7
2022-12-08T23:07:10.633Z,10.7
2022-12-08T23:12:47.132Z,10.8
2022-12-08T23:18:23.145Z,10.8
2022-12-08T23:23:59.872Z,10.7
2022-12-08T23:29:35.941Z,10.7
2022-12-08T23:35:12.247Z,10.7
2022-12-08T23:40:49.028Z,10.7
2022-12-08T23:46:46.806Z,10.8
2022-12-08T23:52:22.993Z,10.8
2022-12-08T23:58:00.485Z,10.8
